Time;durP1;ratioP1;P1;durP2;ratioP2;P2;SDS_P1;SDS_P2;PMS_P1;PMS_P2;Temp;Humidity;BMP_temperature;BMP_pressure;BME280_temperature;BME280_humidity;BME280_pressure;Samples;Min_cycle;Max_cycle;Signal;HPM_P1;HPM_P2
2023/03/02 00:01:51;;;;;;;11.75;7.18;;;2.70;99.90;;;;;;5044723;28;20041;-54
2023/03/02 00:04:25;;;;;;;13.80;7.30;;;2.70;99.90;;;;;;5031893;28;20045;-55
2023/03/02 00:06:53;;;;;;;14.45;7.38;;;2.80;99.90;;;;;;5024915;28;20040;-54
2023/03/02 00:09:19;;;;;;;13.65;7.13;;;2.90;99.90;;;;;;5035451;28;20396;-53
2023/03/02 00:11:44;;;;;;;15.02;6.95;;;2.70;99.90;;;;;;5044434;28;20036;-54
2023/03/02 00:14:10;;;;;;;11.70;6.65;;;2.70;99.90;;;;;;5034271;28;20037;-54
2023/03/02 00:16:36;;;;;;;15.95;7.35;;;2.50;99.90;;;;;;5039684;28;20462;-54
2023/03/02 00:19:01;;;;;;;14.65;7.45;;;2.40;99.90;;;;;;5037448;28;20041;-53
2023/03/02 00:21:27;;;;;;;12.73;7.53;;;2.30;99.90;;;;;;5046514;28;20041;-53
2023/03/02 00:23:53;;;;;;;12.15;7.82;;;2.30;99.90;;;;;;5044514;28;20037;-51
2023/03/02 00:26:19;;;;;;;11.55;7.30;;;2.30;99.90;;;;;;5043266;28;20041;-54
2023/03/02 00:28:45;;;;;;;11.15;6.88;;;2.50;99.90;;;;;;5047930;28;20488;-53
2023/03/02 00:31:10;;;;;;;13.70;7.13;;;2.50;99.90;;;;;;5049503;28;20075;-54
2023/03/02 00:33:36;;;;;;;12.02;6.82;;;2.50;99.90;;;;;;5046553;28;20510;-53
2023/03/02 00:36:02;;;;;;;14.48;7.03;;;2.60;99.90;;;;;;5049277;28;20425;-50
2023/03/02 00:38:28;;;;;;;11.27;7.15;;;2.50;99.90;;;;;;5043354;28;20025;-54
2023/03/02 00:40:54;;;;;;;11.45;6.82;;;2.80;99.90;;;;;;5049721;28;20039;-53
2023/03/02 00:43:26;;;;;;;12.32;6.78;;;2.80;99.90;;;;;;5032268;28;20038;-54
2023/03/02 00:45:52;;;;;;;11.85;6.38;;;2.70;99.90;;;;;;5035063;28;20213;-54
2023/03/02 00:48:18;;;;;;;11.93;6.88;;;2.50;99.90;;;;;;5041382;28;20469;-54
2023/03/02 00:50:43;;;;;;;11.10;6.78;;;2.70;99.90;;;;;;5057095;28;20029;-54
2023/03/02 00:53:09;;;;;;;14.55;6.93;;;2.80;99.90;;;;;;5050571;28;20450;-54
2023/03/02 00:55:36;;;;;;;11.73;6.47;;;2.90;99.90;;;;;;5043864;28;20423;-53
2023/03/02 00:58:03;;;;;;;9.90;6.45;;;2.90;99.90;;;;;;5049721;28;20062;-54
2023/03/02 01:00:29;;;;;;;10.75;6.60;;;2.90;99.90;;;;;;5036585;28;20542;-53
2023/03/02 01:02:55;;;;;;;15.52;6.80;;;2.70;99.90;;;;;;5043923;28;20029;-53
2023/03/02 01:05:21;;;;;;;12.35;6.82;;;2.80;99.90;;;;;;5045290;28;21058;-54
2023/03/02 01:07:47;;;;;;;10.98;6.63;;;2.70;99.90;;;;;;5034902;28;20025;-54
2023/03/02 01:10:13;;;;;;;15.18;7.10;;;2.80;99.90;;;;;;5041264;28;20053;-52
2023/03/02 01:12:39;;;;;;;13.10;6.88;;;2.50;99.90;;;;;;5048204;28;20141;-54
2023/03/02 01:15:06;;;;;;;10.02;6.03;;;2.60;99.90;;;;;;5031785;28;20033;-54
2023/03/02 01:17:31;;;;;;;11.18;6.53;;;2.60;99.90;;;;;;5030962;28;20405;-53
2023/03/02 01:19:57;;;;;;;11.20;6.40;;;2.50;99.90;;;;;;5045054;28;20350;-52
2023/03/02 01:22:22;;;;;;;9.90;6.35;;;2.50;99.90;;;;;;5039295;28;20041;-53
2023/03/02 01:24:48;;;;;;;10.68;6.70;;;2.50;99.90;;;;;;5045009;28;20388;-54
2023/03/02 01:27:14;;;;;;;10.80;6.65;;;2.60;99.90;;;;;;5039898;28;20033;-54
2023/03/02 01:29:40;;;;;;;11.10;6.55;;;2.40;99.90;;;;;;5048476;28;20025;-53
2023/03/02 01:32:07;;;;;;;12.10;7.22;;;2.30;99.90;;;;;;5045712;28;20563;-55
2023/03/02 01:34:32;;;;;;;11.77;6.60;;;2.20;99.90;;;;;;5043816;28;20044;-55
2023/03/02 01:36:58;;;;;;;13.23;7.13;;;2.20;99.90;;;;;;5047713;28;20055;-53
2023/03/02 01:39:24;;;;;;;10.80;6.88;;;2.10;99.90;;;;;;5027174;28;20488;-54
2023/03/02 01:41:51;;;;;;;11.10;6.90;;;2.10;99.90;;;;;;5049241;28;20041;-53
2023/03/02 01:44:38;;;;;;;14.82;7.18;;;2.00;99.90;;;;;;5044610;28;20037;-53
2023/03/02 01:47:12;;;;;;;10.63;6.55;;;1.70;99.90;;;;;;5036749;28;20037;-53
2023/03/02 01:49:43;;;;;;;13.90;7.68;;;1.60;99.90;;;;;;5047955;28;20048;-53
2023/03/02 01:52:11;;;;;;;11.20;7.03;;;1.50;99.90;;;;;;5049426;28;20454;-53
2023/03/02 01:54:39;;;;;;;13.20;7.10;;;1.50;99.90;;;;;;5046779;28;20029;-52
2023/03/02 01:57:06;;;;;;;15.05;7.43;;;1.40;99.90;;;;;;5045633;28;20044;-52
2023/03/02 01:59:34;;;;;;;13.55;7.20;;;1.40;99.90;;;;;;5034625;28;20037;-54
2023/03/02 02:02:03;;;;;;;12.45;7.18;;;1.30;99.90;;;;;;5032865;28;20091;-53
2023/03/02 02:04:31;;;;;;;14.25;7.63;;;1.20;99.90;;;;;;5055087;28;20040;-54
2023/03/02 02:07:02;;;;;;;12.32;7.55;;;1.10;99.90;;;;;;5060921;28;20041;-53
2023/03/02 02:09:33;;;;;;;13.45;7.47;;;1.20;99.90;;;;;;5042068;28;20071;-55
2023/03/02 02:11:59;;;;;;;10.63;7.03;;;1.10;99.90;;;;;;5039385;28;20036;-54
2023/03/02 02:14:25;;;;;;;11.80;7.07;;;1.30;99.90;;;;;;5045445;28;20040;-53
2023/03/02 02:16:50;;;;;;;13.07;7.10;;;1.40;99.90;;;;;;5050274;28;20221;-53
2023/03/02 02:19:28;;;;;;;13.50;7.72;;;1.50;99.90;;;;;;5031166;28;20161;-55
2023/03/02 02:21:53;;;;;;;16.08;7.72;;;1.50;99.90;;;;;;5042413;28;20404;-52
2023/03/02 02:24:27;;;;;;;11.75;7.28;;;1.60;99.90;;;;;;5028523;28;20033;-55
2023/03/02 02:26:56;;;;;;;13.35;7.30;;;1.60;99.90;;;;;;5033800;28;20399;-55
2023/03/02 02:29:34;;;;;;;13.95;8.30;;;1.40;99.90;;;;;;5043350;28;20042;-54
2023/03/02 02:32:08;;;;;;;16.05;8.07;;;1.60;99.90;;;;;;5034238;28;20044;-55
2023/03/02 02:34:40;;;;;;;12.23;7.50;;;1.50;99.90;;;;;;5048223;28;20056;-54
2023/03/02 02:37:11;;;;;;;11.95;7.68;;;1.40;99.90;;;;;;5039160;28;20510;-54
2023/03/02 02:39:40;;;;;;;11.85;7.07;;;1.40;99.90;;;;;;5044036;28;20041;-52
2023/03/02 02:42:15;;;;;;;11.73;7.65;;;1.40;99.90;;;;;;5035649;28;20045;-53
2023/03/02 02:44:40;;;;;;;14.05;7.78;;;1.40;99.90;;;;;;5030785;28;20033;-54
2023/03/02 02:47:18;;;;;;;12.75;7.68;;;1.30;99.90;;;;;;5040176;28;20050;-54
2023/03/02 02:49:46;;;;;;;15.20;8.75;;;1.40;99.90;;;;;;5057435;28;20041;-55
2023/03/02 02:52:16;;;;;;;11.98;7.65;;;1.40;99.90;;;;;;5028381;28;20425;-54
2023/03/02 02:54:43;;;;;;;14.98;8.25;;;1.40;99.90;;;;;;5047018;28;20124;-53
2023/03/02 02:57:10;;;;;;;12.68;8.10;;;1.50;99.90;;;;;;5048757;28;20448;-53
2023/03/02 02:59:42;;;;;;;13.80;8.10;;;1.50;99.90;;;;;;5045522;28;20037;-53
2023/03/02 03:02:19;;;;;;;16.65;8.00;;;1.50;99.90;;;;;;5039607;28;20064;-55
2023/03/02 03:04:45;;;;;;;12.68;7.68;;;1.50;99.90;;;;;;5036291;28;20490;-54
2023/03/02 03:07:20;;;;;;;16.23;7.95;;;1.50;99.90;;;;;;5033877;28;20041;-53
2023/03/02 03:09:56;;;;;;;15.45;8.25;;;1.50;99.90;;;;;;5040530;28;20389;-54
2023/03/02 03:12:24;;;;;;;13.82;7.50;;;1.30;99.90;;;;;;5039217;28;20073;-51
2023/03/02 03:14:51;;;;;;;13.68;8.38;;;1.30;99.90;;;;;;5035342;28;20101;-52
2023/03/02 03:17:17;;;;;;;13.35;7.50;;;1.30;99.90;;;;;;5029953;28;20501;-51
2023/03/02 03:19:45;;;;;;;14.38;7.47;;;1.30;99.90;;;;;;5045257;28;20071;-53
2023/03/02 03:22:12;;;;;;;16.85;8.25;;;1.20;99.90;;;;;;5034143;28;20040;-54
2023/03/02 03:24:40;;;;;;;12.98;7.95;;;1.20;99.90;;;;;;5036282;28;20046;-52
2023/03/02 03:27:08;;;;;;;15.50;8.65;;;1.30;99.90;;;;;;5040407;28;20468;-53
2023/03/02 03:29:36;;;;;;;13.77;7.63;;;1.20;99.90;;;;;;5045813;28;20452;-54
2023/03/02 03:32:02;;;;;;;16.35;7.97;;;1.10;99.90;;;;;;5039118;28;20083;-52
2023/03/02 03:34:29;;;;;;;12.90;7.70;;;1.10;99.90;;;;;;5047231;28;20087;-54
2023/03/02 03:37:00;;;;;;;14.18;7.85;;;1.20;99.90;;;;;;5039855;28;20392;-54
2023/03/02 03:39:27;;;;;;;13.13;7.00;;;1.30;99.90;;;;;;5028453;28;20048;-54
2023/03/02 03:41:53;;;;;;;14.57;7.35;;;1.20;99.90;;;;;;5040566;28;20065;-54
2023/03/02 03:44:18;;;;;;;14.50;6.72;;;1.20;99.90;;;;;;5032860;28;20084;-55
2023/03/02 03:46:44;;;;;;;14.43;7.50;;;1.20;99.90;;;;;;5038557;28;20309;-53
2023/03/02 03:49:10;;;;;;;13.00;7.45;;;1.20;99.90;;;;;;5033489;28;20025;-54
2023/03/02 03:51:35;;;;;;;12.93;7.47;;;1.10;99.90;;;;;;5039743;28;20037;-54
2023/03/02 03:54:07;;;;;;;12.05;7.10;;;1.10;99.90;;;;;;5031033;28;20064;-53
2023/03/02 03:56:35;;;;;;;12.23;7.80;;;1.10;99.90;;;;;;5054676;28;20099;-53
2023/03/02 03:59:07;;;;;;;15.43;7.72;;;1.10;99.90;;;;;;5063075;28;20505;-53
2023/03/02 04:01:38;;;;;;;11.15;7.20;;;1.10;99.90;;;;;;5059442;28;20402;-53
2023/03/02 04:04:06;;;;;;;15.80;7.88;;;1.20;99.90;;;;;;5053172;28;20028;-53
2023/03/02 04:06:32;;;;;;;15.20;7.88;;;1.10;99.90;;;;;;5042094;28;20033;-53
2023/03/02 04:09:03;;;;;;;14.73;7.70;;;1.10;99.90;;;;;;5042504;28;20033;-54
2023/03/02 04:11:32;;;;;;;15.35;7.93;;;1.10;99.90;;;;;;5045770;28;20055;-52
2023/03/02 04:13:58;;;;;;;13.63;7.15;;;1.00;99.90;;;;;;5050732;28;20033;-54
2023/03/02 04:16:23;;;;;;;19.00;8.38;;;1.00;99.90;;;;;;5055841;28;20045;-53
2023/03/02 04:18:49;;;;;;;14.23;8.00;;;0.90;99.90;;;;;;5047172;28;20111;-54
2023/03/02 04:21:15;;;;;;;15.50;7.25;;;0.90;99.90;;;;;;5047437;28;20094;-54
2023/03/02 04:23:40;;;;;;;14.20;7.85;;;0.90;99.90;;;;;;5045283;28;20086;-52
2023/03/02 04:26:06;;;;;;;16.98;8.20;;;0.90;99.90;;;;;;5050500;28;20033;-53
2023/03/02 04:28:32;;;;;;;14.38;7.35;;;1.00;99.90;;;;;;5049718;28;20044;-53
2023/03/02 04:30:57;;;;;;;14.60;7.53;;;1.00;99.90;;;;;;5051991;28;20026;-54
2023/03/02 04:33:23;;;;;;;12.48;6.85;;;1.00;99.90;;;;;;5049274;28;20083;-52
2023/03/02 04:35:49;;;;;;;14.27;8.20;;;1.00;99.90;;;;;;5050472;28;20123;-53
2023/03/02 04:38:14;;;;;;;13.50;7.70;;;1.10;99.90;;;;;;5047728;28;20032;-53
2023/03/02 04:40:40;;;;;;;13.20;7.22;;;1.00;99.90;;;;;;5047179;28;20037;-53
2023/03/02 04:43:06;;;;;;;12.88;8.00;;;1.00;99.90;;;;;;5037518;28;20033;-54
2023/03/02 04:45:32;;;;;;;12.80;7.25;;;0.90;99.90;;;;;;5043780;28;20094;-54
2023/03/02 04:47:57;;;;;;;12.00;7.18;;;0.90;99.90;;;;;;5035728;28;20454;-53
2023/03/02 04:50:23;;;;;;;14.02;7.65;;;0.90;99.90;;;;;;5043943;28;20029;-54
2023/03/02 04:52:49;;;;;;;12.38;6.88;;;0.90;99.90;;;;;;5044745;28;20058;-52
2023/03/02 04:55:19;;;;;;;12.15;7.32;;;0.90;99.90;;;;;;5047479;28;20029;-54
2023/03/02 04:57:45;;;;;;;14.40;7.38;;;0.90;99.90;;;;;;5043880;28;20120;-53
2023/03/02 05:00:11;;;;;;;12.32;7.68;;;0.90;99.90;;;;;;5032219;28;20112;-53
2023/03/02 05:02:38;;;;;;;12.00;7.10;;;1.00;99.90;;;;;;5025609;28;20419;-53
2023/03/02 05:05:04;;;;;;;14.65;7.30;;;0.90;99.90;;;;;;5048680;28;20037;-54
2023/03/02 05:07:29;;;;;;;11.93;7.35;;;0.80;99.90;;;;;;5037803;28;20064;-54
2023/03/02 05:09:55;;;;;;;14.93;7.53;;;0.90;99.90;;;;;;5030601;28;20045;-54
2023/03/02 05:12:21;;;;;;;13.80;7.65;;;1.00;99.90;;;;;;5029546;28;20041;-54
2023/03/02 05:14:46;;;;;;;13.63;7.38;;;0.90;99.90;;;;;;5030939;28;20052;-52
2023/03/02 05:17:12;;;;;;;12.95;7.50;;;1.00;99.90;;;;;;5034551;28;20052;-54
2023/03/02 05:19:38;;;;;;;12.85;7.50;;;0.90;99.90;;;;;;5032655;28;20088;-54
2023/03/02 05:22:03;;;;;;;12.90;7.22;;;0.90;99.90;;;;;;5031721;28;20092;-55
2023/03/02 05:24:29;;;;;;;16.70;7.20;;;1.00;99.90;;;;;;5041958;28;20049;-54
2023/03/02 05:26:54;;;;;;;13.32;7.47;;;1.00;99.90;;;;;;5035456;28;20029;-55
2023/03/02 05:29:20;;;;;;;12.27;7.43;;;1.00;99.90;;;;;;5047592;28;20094;-54
2023/03/02 05:31:46;;;;;;;12.60;6.97;;;1.10;99.90;;;;;;5037322;28;20034;-54
2023/03/02 05:34:15;;;;;;;13.15;6.95;;;1.00;99.90;;;;;;5031812;28;20049;-55
2023/03/02 05:36:41;;;;;;;13.07;7.50;;;1.00;99.90;;;;;;5040128;28;20319;-55
2023/03/02 05:39:07;;;;;;;13.50;7.32;;;1.20;99.90;;;;;;5034725;28;20046;-52
2023/03/02 05:41:34;;;;;;;14.32;7.28;;;1.10;99.90;;;;;;5036354;28;20136;-54
2023/03/02 05:44:00;;;;;;;14.35;7.50;;;1.10;99.90;;;;;;5042863;28;20083;-54
2023/03/02 05:46:26;;;;;;;12.02;6.95;;;1.10;99.90;;;;;;5039223;28;20045;-54
2023/03/02 05:48:52;;;;;;;13.52;7.03;;;1.00;99.90;;;;;;5047339;28;20120;-54
2023/03/02 05:51:17;;;;;;;11.73;6.90;;;1.10;99.90;;;;;;5035763;28;20053;-54
2023/03/02 05:53:43;;;;;;;12.60;6.88;;;0.90;99.90;;;;;;5033133;28;20030;-54
2023/03/02 05:56:09;;;;;;;13.40;7.45;;;0.80;99.90;;;;;;5042648;28;20386;-55
2023/03/02 05:58:34;;;;;;;11.65;7.20;;;0.90;99.90;;;;;;5037684;28;20029;-55
2023/03/02 06:01:00;;;;;;;11.98;7.18;;;0.80;99.90;;;;;;5037392;28;20065;-54
2023/03/02 06:03:26;;;;;;;11.15;6.60;;;0.90;99.90;;;;;;5038582;28;20041;-53
2023/03/02 06:05:51;;;;;;;13.27;6.90;;;1.00;99.90;;;;;;5035223;28;20041;-53
2023/03/02 06:08:18;;;;;;;20.00;7.90;;;1.00;99.90;;;;;;5046986;28;20113;-54
2023/03/02 06:10:44;;;;;;;12.98;7.55;;;1.00;99.90;;;;;;5041539;28;20088;-54
2023/03/02 06:13:10;;;;;;;21.88;7.40;;;0.90;99.90;;;;;;5043906;28;20476;-53
2023/03/02 06:15:38;;;;;;;14.63;7.50;;;1.00;99.90;;;;;;5048449;28;20065;-55
2023/03/02 06:18:04;;;;;;;13.07;7.00;;;1.10;99.90;;;;;;5043925;28;20041;-53
2023/03/02 06:20:29;;;;;;;12.52;7.13;;;0.90;99.90;;;;;;5046218;28;20175;-55
2023/03/02 06:22:55;;;;;;;11.85;6.70;;;0.90;99.90;;;;;;5043718;28;20061;-53
2023/03/02 06:25:22;;;;;;;12.10;7.10;;;0.90;99.90;;;;;;5057236;28;20660;-55
2023/03/02 06:27:52;;;;;;;21.08;7.55;;;1.00;99.90;;;;;;5049030;28;20040;-54
2023/03/02 06:30:24;;;;;;;14.70;7.65;;;1.00;99.90;;;;;;5051918;28;20074;-53
2023/03/02 06:32:49;;;;;;;13.65;7.15;;;1.00;99.90;;;;;;5038721;28;20087;-56
2023/03/02 06:35:15;;;;;;;10.48;6.80;;;1.00;99.90;;;;;;5060903;28;20033;-55
2023/03/02 06:37:41;;;;;;;12.57;7.18;;;0.90;99.90;;;;;;5038869;28;20036;-54
2023/03/02 06:40:09;;;;;;;14.13;7.35;;;1.20;99.90;;;;;;5015720;28;20041;-55
2023/03/02 06:42:35;;;;;;;12.65;7.07;;;1.30;99.90;;;;;;5051917;28;20417;-55
2023/03/02 06:45:00;;;;;;;15.45;7.00;;;1.10;99.90;;;;;;5055581;28;20569;-56
2023/03/02 06:47:26;;;;;;;14.20;6.47;;;1.10;99.90;;;;;;5050364;28;20045;-54
2023/03/02 06:49:51;;;;;;;12.68;7.32;;;1.00;99.90;;;;;;5048541;28;20040;-54
2023/03/02 06:52:17;;;;;;;15.15;7.25;;;0.90;99.90;;;;;;5046787;28;20374;-55
2023/03/02 06:54:43;;;;;;;11.85;6.75;;;1.10;99.90;;;;;;5042918;28;20385;-53
2023/03/02 06:57:09;;;;;;;15.98;6.90;;;1.10;99.90;;;;;;5021844;28;20075;-55
2023/03/02 06:59:35;;;;;;;10.98;7.38;;;1.00;99.90;;;;;;5043472;28;20046;-54
2023/03/02 07:02:00;;;;;;;15.15;7.47;;;1.00;99.90;;;;;;5040172;28;20044;-55
2023/03/02 07:04:28;;;;;;;11.30;6.85;;;1.10;99.90;;;;;;5039851;28;20047;-54
2023/03/02 07:06:55;;;;;;;10.88;7.03;;;1.20;99.90;;;;;;5041398;28;20084;-56
2023/03/02 07:09:21;;;;;;;14.55;7.57;;;1.30;99.90;;;;;;5040479;28;20120;-54
2023/03/02 07:11:47;;;;;;;12.73;6.90;;;1.40;99.90;;;;;;5037421;28;20519;-54
2023/03/02 07:14:13;;;;;;;12.07;7.40;;;1.60;99.90;;;;;;5044674;28;20037;-54
2023/03/02 07:16:38;;;;;;;14.32;7.53;;;1.70;99.90;;;;;;5024314;28;20044;-55
2023/03/02 07:19:04;;;;;;;12.43;6.60;;;1.80;99.90;;;;;;5060399;28;20040;-54
2023/03/02 07:21:29;;;;;;;13.10;7.25;;;1.70;99.90;;;;;;5041103;28;20036;-54
2023/03/02 07:23:55;;;;;;;13.68;6.78;;;1.80;99.90;;;;;;5055981;28;20040;-53
2023/03/02 07:26:21;;;;;;;12.90;6.53;;;2.00;99.90;;;;;;5055153;28;20204;-55
2023/03/02 07:28:46;;;;;;;11.23;5.40;;;2.00;99.90;;;;;;5033939;28;20057;-55
2023/03/02 07:31:12;;;;;;;12.05;6.88;;;1.90;99.90;;;;;;5035400;28;20469;-56
2023/03/02 07:33:38;;;;;;;14.15;7.30;;;1.90;99.90;;;;;;5039252;28;20649;-55
2023/03/02 07:36:06;;;;;;;14.40;7.53;;;2.00;99.90;;;;;;5033787;28;20026;-55
2023/03/02 07:38:33;;;;;;;12.68;7.22;;;2.10;99.90;;;;;;5039982;28;20090;-55
2023/03/02 07:40:58;;;;;;;11.38;7.05;;;2.20;99.90;;;;;;5028213;28;20065;-54
2023/03/02 07:43:26;;;;;;;13.82;6.97;;;2.30;99.90;;;;;;5036595;28;20578;-54
2023/03/02 07:45:51;;;;;;;12.88;7.47;;;2.30;99.90;;;;;;5036416;28;20029;-55
2023/03/02 07:48:18;;;;;;;12.43;6.65;;;2.30;99.90;;;;;;5016922;28;20052;-56
2023/03/02 07:50:44;;;;;;;12.48;6.88;;;2.40;99.90;;;;;;5041490;28;20056;-54
2023/03/02 07:53:10;;;;;;;11.90;6.53;;;2.40;99.90;;;;;;5032503;28;20520;-54
2023/03/02 07:55:39;;;;;;;13.23;6.97;;;2.40;99.90;;;;;;5042921;28;20507;-54
2023/03/02 07:58:05;;;;;;;13.70;7.28;;;2.50;99.90;;;;;;5044629;28;20110;-54
2023/03/02 08:00:31;;;;;;;14.35;7.20;;;2.60;99.90;;;;;;5035329;28;20519;-55
2023/03/02 08:02:56;;;;;;;11.27;6.30;;;2.80;99.90;;;;;;5040464;28;20052;-55
2023/03/02 08:05:22;;;;;;;14.60;7.97;;;2.70;99.90;;;;;;5046274;28;20040;-55
2023/03/02 08:07:47;;;;;;;14.32;6.63;;;2.70;99.90;;;;;;5042050;28;20063;-55
2023/03/02 08:10:13;;;;;;;10.73;6.53;;;2.80;99.90;;;;;;5034064;28;20116;-52
2023/03/02 08:12:39;;;;;;;11.00;6.82;;;2.90;99.90;;;;;;5014827;28;20465;-55
2023/03/02 08:15:05;;;;;;;12.68;6.63;;;3.10;99.90;;;;;;5037699;28;20032;-55
2023/03/02 08:17:31;;;;;;;12.38;7.00;;;3.10;99.90;;;;;;5031978;28;20041;-54
2023/03/02 08:19:57;;;;;;;13.23;6.88;;;3.20;99.90;;;;;;5039772;28;20108;-54
2023/03/02 08:22:22;;;;;;;12.90;6.97;;;3.20;99.90;;;;;;5034790;28;20341;-54
2023/03/02 08:24:48;;;;;;;13.13;7.30;;;3.20;99.90;;;;;;5039542;28;20492;-53
2023/03/02 08:27:14;;;;;;;15.20;7.32;;;3.30;99.90;;;;;;5034455;28;20125;-53
2023/03/02 08:29:40;;;;;;;14.65;8.15;;;3.30;99.90;;;;;;5035878;28;20048;-54
2023/03/02 08:32:05;;;;;;;13.50;7.13;;;3.30;99.90;;;;;;5037241;28;20476;-54
2023/03/02 08:34:31;;;;;;;16.38;9.02;;;3.40;99.90;;;;;;5031691;28;20147;-54
2023/03/02 08:36:58;;;;;;;12.48;7.78;;;3.40;99.90;;;;;;5033867;28;20076;-54
2023/03/02 08:39:24;;;;;;;15.93;8.57;;;3.40;99.90;;;;;;5041373;28;20110;-53
2023/03/02 08:41:50;;;;;;;23.17;11.23;;;3.50;99.90;;;;;;5040292;28;20502;-53
2023/03/02 08:44:16;;;;;;;12.85;7.57;;;3.60;99.90;;;;;;5023667;28;20526;-55
2023/03/02 08:46:42;;;;;;;12.15;7.38;;;3.70;99.90;;;;;;5031402;28;20064;-55
2023/03/02 08:49:08;;;;;;;12.50;7.60;;;3.70;99.90;;;;;;5040267;28;20385;-54
2023/03/02 08:51:33;;;;;;;14.63;6.75;;;3.70;99.90;;;;;;5019943;28;20388;-55
2023/03/02 08:53:59;;;;;;;11.05;6.78;;;3.70;99.90;;;;;;5046379;28;20044;-54
2023/03/02 08:56:31;;;;;;;12.18;7.38;;;3.70;99.90;;;;;;5048448;28;20121;-54
2023/03/02 08:58:59;;;;;;;14.57;7.85;;;3.80;99.90;;;;;;5054960;28;20108;-54
2023/03/02 09:01:30;;;;;;;14.32;7.85;;;3.90;99.90;;;;;;5043842;28;20045;-55
2023/03/02 09:03:59;;;;;;;20.00;7.80;;;3.90;99.90;;;;;;5048333;28;20040;-55
2023/03/02 09:06:26;;;;;;;14.43;7.30;;;4.00;99.90;;;;;;5040726;28;20068;-54
2023/03/02 09:08:51;;;;;;;18.33;7.97;;;4.10;99.90;;;;;;5041689;28;20037;-54
2023/03/02 09:11:17;;;;;;;16.92;7.50;;;4.20;99.90;;;;;;5034596;28;20498;-54
2023/03/02 09:13:43;;;;;;;12.95;7.18;;;4.30;99.90;;;;;;5042275;28;20114;-55
2023/03/02 09:16:12;;;;;;;15.52;7.65;;;4.30;99.90;;;;;;5032750;28;20034;-54
2023/03/02 09:18:38;;;;;;;12.30;7.03;;;4.40;99.90;;;;;;5044451;28;20029;-53
2023/03/02 09:21:04;;;;;;;15.13;7.53;;;4.40;99.90;;;;;;5033357;28;20037;-55
2023/03/02 09:23:30;;;;;;;13.15;7.15;;;4.50;99.90;;;;;;5014009;28;20037;-54
2023/03/02 09:25:56;;;;;;;10.05;6.13;;;4.40;99.90;;;;;;5037961;28;20037;-55
2023/03/02 09:28:22;;;;;;;14.75;6.72;;;4.40;99.90;;;;;;5035280;28;20586;-53
2023/03/02 09:30:50;;;;;;;14.07;7.40;;;4.40;99.90;;;;;;5031096;28;20109;-55
2023/03/02 09:33:16;;;;;;;11.63;7.18;;;4.60;99.90;;;;;;5031062;28;20088;-54
2023/03/02 09:35:42;;;;;;;11.45;6.35;;;4.60;99.90;;;;;;5032152;28;20026;-53
2023/03/02 09:38:11;;;;;;;11.93;6.90;;;4.60;99.90;;;;;;5040095;28;20124;-53
2023/03/02 09:40:43;;;;;;;12.68;6.95;;;4.60;99.90;;;;;;5034189;28;20089;-53
2023/03/02 09:43:49;;;;;;;13.65;7.47;;;4.70;99.90;;;;;;5033145;28;20444;-54
2023/03/02 09:46:32;;;;;;;12.23;6.35;;;4.80;99.90;;;;;;4983270;28;20113;-55
2023/03/02 09:49:17;;;;;;;;;;;4.90;99.90;;;;;;5031257;28;20511;-55
2023/03/02 09:52:39;;;;;;;11.27;6.95;;;5.00;99.90;;;;;;5058450;28;19909;-54
2023/03/02 09:55:18;;;;;;;19.48;7.30;;;5.00;99.90;;;;;;4967175;28;20438;-54
2023/03/02 09:57:45;;;;;;;10.23;6.28;;;5.10;99.90;;;;;;4965678;28;20441;-52
2023/03/02 10:00:14;;;;;;;11.73;6.40;;;5.20;99.90;;;;;;5018360;28;20028;-53
2023/03/02 10:03:15;;;;;;;14.07;7.53;;;5.30;99.90;;;;;;5062393;28;20041;-54
2023/03/02 10:05:43;;;;;;;11.52;6.93;;;5.30;99.90;;;;;;5056407;28;20068;-54
2023/03/02 10:08:16;;;;;;;12.30;7.05;;;5.30;99.90;;;;;;5066191;28;20029;-54
2023/03/02 10:10:48;;;;;;;;;;;5.30;99.90;;;;;;5065505;28;20040;-54
2023/03/02 10:13:36;;;;;;;12.30;6.90;;;5.30;99.90;;;;;;5067915;28;20555;-55
2023/03/02 10:16:12;;;;;;;12.15;6.82;;;5.40;99.90;;;;;;5059422;28;20527;-52
2023/03/02 10:18:47;;;;;;;14.80;7.30;;;5.40;99.90;;;;;;5050598;28;20158;-55
2023/03/02 10:21:27;;;;;;;12.32;6.97;;;5.40;99.90;;;;;;5054521;28;20033;-55
2023/03/02 10:24:23;;;;;;;16.20;7.80;;;5.60;99.90;;;;;;5033961;28;20115;-55
2023/03/02 10:27:00;;;;;;;15.55;7.53;;;5.50;99.90;;;;;;5050155;28;20563;-53
2023/03/02 10:29:47;;;;;;;10.98;7.22;;;5.60;99.90;;;;;;5037707;28;20522;-54
2023/03/02 10:32:26;;;;;;;13.15;6.70;;;5.70;99.90;;;;;;5036460;28;20029;-54
2023/03/02 10:34:52;;;;;;;13.20;7.03;;;5.80;99.90;;;;;;5046306;28;20025;-55
2023/03/02 10:37:24;;;;;;;12.10;7.85;;;5.90;99.90;;;;;;5041527;28;20021;-54
2023/03/02 10:39:54;;;;;;;13.25;7.72;;;5.90;99.90;;;;;;5039782;28;20457;-54
2023/03/02 10:42:21;;;;;;;14.13;7.28;;;6.00;99.90;;;;;;5013215;28;20469;-54
2023/03/02 10:44:51;;;;;;;14.95;7.07;;;6.00;99.90;;;;;;5034301;28;20609;-55
2023/03/02 10:47:26;;;;;;;14.43;6.97;;;6.00;99.90;;;;;;5031326;28;20044;-56
2023/03/02 10:49:53;;;;;;;13.63;7.35;;;6.00;99.90;;;;;;5035832;28;20429;-53
2023/03/02 10:52:25;;;;;;;16.50;7.55;;;6.00;99.90;;;;;;5033561;28;20033;-54
2023/03/02 10:55:05;;;;;;;46.90;29.50;;;6.00;99.90;;;;;;5042106;28;20045;-55
2023/03/02 10:57:36;;;;;;;23.45;10.60;;;6.20;99.90;;;;;;5039572;28;20040;-54
2023/03/02 11:00:23;;;;;;;13.52;7.68;;;6.30;99.90;;;;;;5028489;28;20041;-53
2023/03/02 11:03:00;;;;;;;16.08;7.20;;;6.40;99.90;;;;;;5038576;28;20052;-55
2023/03/02 11:05:38;;;;;;;12.45;7.35;;;6.40;99.90;;;;;;5047253;28;20056;-53
2023/03/02 11:08:07;;;;;;;12.18;7.30;;;6.50;99.90;;;;;;5045089;28;20052;-54
2023/03/02 11:10:36;;;;;;;9.88;5.78;;;6.50;99.90;;;;;;5024028;28;20029;-55
2023/03/02 11:13:16;;;;;;;18.63;8.57;;;6.70;99.90;;;;;;5043008;28;20385;-56
2023/03/02 11:15:47;;;;;;;12.20;7.38;;;6.60;99.90;;;;;;5033231;28;20029;-55
2023/03/02 11:18:48;;;;;;;12.85;7.35;;;6.70;99.90;;;;;;5041214;28;20039;-54
2023/03/02 11:21:21;;;;;;;12.43;7.60;;;6.70;99.90;;;;;;5011158;28;20133;-54
2023/03/02 11:24:07;;;;;;;14.77;7.57;;;6.70;99.90;;;;;;5060036;28;20434;-53
2023/03/02 11:26:37;;;;;;;14.30;7.97;;;6.80;99.90;;;;;;5037637;28;20507;-55
2023/03/02 11:29:29;;;;;;;11.65;7.30;;;6.80;99.90;;;;;;4996354;28;20040;-55
2023/03/02 11:32:05;;;;;;;14.18;7.60;;;6.90;99.90;;;;;;5010040;28;20112;-55
2023/03/02 11:34:50;;;;;;;13.13;7.50;;;6.90;99.90;;;;;;5035361;28;20037;-55
2023/03/02 11:37:26;;;;;;;13.35;6.68;;;7.00;99.90;;;;;;5034163;28;20029;-53
2023/03/02 11:40:04;;;;;;;13.68;7.55;;;7.10;99.90;;;;;;5036251;28;20037;-54
2023/03/02 11:42:36;;;;;;;15.98;7.88;;;7.10;99.90;;;;;;5048399;28;20040;-55
2023/03/02 11:45:19;;;;;;;13.20;7.45;;;7.00;99.90;;;;;;5057239;28;20409;-52
2023/03/02 11:47:52;;;;;;;16.70;7.03;;;7.00;99.90;;;;;;5052930;28;20346;-54
2023/03/02 11:50:18;;;;;;;13.10;7.55;;;7.40;99.90;;;;;;5057238;28;20052;-55
2023/03/02 11:52:50;;;;;;;13.38;7.97;;;7.30;99.90;;;;;;5053533;28;20052;-55
2023/03/02 11:55:24;;;;;;;11.60;7.20;;;7.30;99.90;;;;;;5042141;28;20438;-55
2023/03/02 11:58:01;;;;;;;14.00;7.03;;;7.30;99.90;;;;;;5033515;28;20037;-54
2023/03/02 12:00:34;;;;;;;16.10;7.25;;;7.50;99.90;;;;;;5048502;28;20549;-54
2023/03/02 12:03:06;;;;;;;13.50;7.88;;;7.40;99.90;;;;;;5061838;28;20079;-54
2023/03/02 12:05:34;;;;;;;11.95;6.90;;;7.50;99.90;;;;;;5060148;28;20074;-54
2023/03/02 12:08:18;;;;;;;15.57;7.85;;;7.60;99.90;;;;;;5070936;28;20025;-55
2023/03/02 12:10:57;;;;;;;13.50;7.88;;;7.70;99.90;;;;;;5066777;28;20438;-55
2023/03/02 12:13:29;;;;;;;12.98;7.60;;;7.70;99.90;;;;;;5062370;28;20037;-55
2023/03/02 12:15:57;;;;;;;16.27;7.43;;;7.60;99.90;;;;;;5058606;28;20052;-54
2023/03/02 12:18:52;;;;;;;14.52;7.28;;;7.70;99.90;;;;;;5044088;28;20041;-55
2023/03/02 12:21:23;;;;;;;16.48;7.13;;;7.70;99.90;;;;;;5038612;28;20048;-54
2023/03/02 12:23:48;;;;;;;11.82;6.82;;;7.70;99.90;;;;;;5020461;28;20091;-54
2023/03/02 12:26:20;;;;;;;12.00;7.32;;;7.90;99.90;;;;;;5034670;28;20033;-55
2023/03/02 12:29:09;;;;;;;10.65;6.90;;;7.90;99.90;;;;;;5044320;28;20036;-54
2023/03/02 12:31:44;;;;;;;12.55;7.60;;;7.90;99.90;;;;;;5045598;28;20102;-55
2023/03/02 12:34:41;;;;;;;15.40;7.10;;;7.90;99.90;;;;;;5029807;28;20562;-53
2023/03/02 12:37:31;;;;;;;12.10;6.47;;;7.90;99.90;;;;;;5045177;28;20037;-53
2023/03/02 12:40:12;;;;;;;26.92;15.88;;;7.80;99.90;;;;;;5040844;28;20694;-55
2023/03/02 12:42:46;;;;;;;16.75;8.85;;;8.10;99.90;;;;;;5050993;28;20075;-53
2023/03/02 12:45:43;;;;;;;12.18;6.97;;;8.20;99.90;;;;;;5036379;28;20036;-52
2023/03/02 12:48:21;;;;;;;11.43;6.50;;;8.20;99.90;;;;;;5053961;28;20384;-52
2023/03/02 12:50:47;;;;;;;20.67;6.50;;;8.40;99.90;;;;;;5040845;28;20116;-53
2023/03/02 12:53:18;;;;;;;10.15;6.32;;;8.30;99.90;;;;;;5054627;28;20424;-53
2023/03/02 12:55:44;;;;;;;10.77;5.95;;;8.30;99.90;;;;;;5049670;28;20631;-53
2023/03/02 12:58:22;;;;;;;11.65;6.38;;;8.40;99.90;;;;;;5041064;28;20029;-53
2023/03/02 13:00:53;;;;;;;9.88;5.57;;;8.40;99.90;;;;;;5028854;28;20045;-55